Terminal Aerodrome Forecast
Issued by NWS

Home | Current Version | Previous Version | Graphics & Text | Print | Product List | Glossary On
Versions: 1 2 3 4 5 6 7 8 9 10 11 12 13 14 15
000
FTUS43 KMPX 202340
TAFRWF
TAF
KRWF 202340Z 2100/2124 06011KT 2SM -DZ BR OVC006
     FM210500 34008KT 1SM -DZ BR OVC003
     FM211100 30010KT P6SM VCSH OVC008
     FM211700 30014G21KT P6SM OVC015=

USA.gov is the U.S. government's official web portal to all federal, state and local government web resources and services.